Time;durP1;ratioP1;P1;durP2;ratioP2;P2;SDS_P1;SDS_P2;PMS_P1;PMS_P2;Temp;Humidity;BMP_temperature;BMP_pressure;BME280_temperature;BME280_humidity;BME280_pressure;Samples;Min_cycle;Max_cycle;Signal;HPM_P1;HPM_P2
2022/07/20 00:00:51;;;;;;;6.38;2.92;;;24.10;62.00;;;;;;5065971;28;20389;-69
2022/07/20 00:03:17;;;;;;;7.93;3.20;;;24.00;62.70;;;;;;5037023;28;20756;-68
2022/07/20 00:05:43;;;;;;;4.30;3.42;;;23.80;63.20;;;;;;5045473;28;20065;-68
2022/07/20 00:08:09;;;;;;;5.30;3.20;;;23.70;63.00;;;;;;5033982;28;20467;-69
2022/07/20 00:13:21;;;;;;;7.25;3.10;;;23.60;63.50;;;;;;5070025;28;20397;-69
2022/07/20 00:15:46;;;;;;;4.97;3.08;;;23.50;65.60;;;;;;5052782;28;20037;-69
2022/07/20 00:18:12;;;;;;;3.55;2.95;;;23.40;64.40;;;;;;5039176;28;20068;-69
2022/07/20 00:20:38;;;;;;;6.43;3.35;;;23.40;63.40;;;;;;5033594;28;20041;-69
2022/07/20 00:23:04;;;;;;;4.50;3.20;;;23.30;64.80;;;;;;5041335;28;20037;-69
2022/07/20 00:25:30;;;;;;;4.25;2.90;;;23.20;63.50;;;;;;5033172;28;20045;-68
2022/07/20 00:27:56;;;;;;;5.57;2.88;;;23.20;64.90;;;;;;5038223;28;20374;-69
2022/07/20 00:30:22;;;;;;;5.93;3.03;;;23.10;64.20;;;;;;5045067;28;20032;-69
2022/07/20 00:32:47;;;;;;;4.32;3.15;;;23.10;65.10;;;;;;5033586;28;20041;-69
2022/07/20 00:35:15;;;;;;;3.88;3.20;;;23.00;65.40;;;;;;5052499;28;20029;-68
2022/07/20 00:37:41;;;;;;;4.95;3.20;;;22.90;65.40;;;;;;5053019;28;20056;-69
2022/07/20 00:40:09;;;;;;;5.45;3.20;;;22.80;65.70;;;;;;5052583;28;20377;-68
2022/07/20 00:42:36;;;;;;;6.28;3.30;;;22.80;66.10;;;;;;5036665;28;20082;-69
2022/07/20 00:45:03;;;;;;;4.63;3.05;;;22.70;65.30;;;;;;5052851;28;20389;-69
2022/07/20 00:47:28;;;;;;;3.60;2.90;;;22.60;66.20;;;;;;5047313;28;20059;-69
2022/07/20 00:49:54;;;;;;;4.07;3.35;;;22.60;67.10;;;;;;5040447;28;20798;-69
2022/07/20 00:52:20;;;;;;;3.50;3.20;;;22.50;67.10;;;;;;5051231;28;20087;-68
2022/07/20 00:54:48;;;;;;;6.03;2.92;;;22.50;66.80;;;;;;5051981;28;20036;-68
2022/07/20 00:57:15;;;;;;;4.85;3.20;;;22.40;67.10;;;;;;5024421;28;20550;-69
2022/07/20 00:59:41;;;;;;;4.57;3.00;;;22.30;67.00;;;;;;5051142;28;20045;-69
2022/07/20 01:02:07;;;;;;;5.25;3.00;;;22.30;67.60;;;;;;5040132;28;20091;-68
2022/07/20 01:04:32;;;;;;;4.53;3.13;;;22.20;68.20;;;;;;5030802;28;20500;-69
2022/07/20 01:06:58;;;;;;;6.05;3.33;;;22.20;68.50;;;;;;5035599;28;20059;-68
2022/07/20 01:09:24;;;;;;;6.35;3.58;;;22.20;68.30;;;;;;5044261;28;20458;-68
2022/07/20 01:11:50;;;;;;;4.53;3.10;;;22.10;67.80;;;;;;5041655;28;20087;-68
2022/07/20 01:14:15;;;;;;;3.63;2.85;;;22.00;69.00;;;;;;5027693;28;20073;-68
2022/07/20 01:16:41;;;;;;;4.95;3.10;;;22.00;68.80;;;;;;5043571;28;20541;-69
2022/07/20 01:19:06;;;;;;;7.22;3.40;;;22.00;69.10;;;;;;5036520;28;20055;-68
2022/07/20 01:21:33;;;;;;;4.00;3.20;;;21.90;69.40;;;;;;5063492;28;20036;-69
2022/07/20 01:23:58;;;;;;;3.58;3.17;;;21.80;68.90;;;;;;5074705;28;20063;-68
2022/07/20 01:26:24;;;;;;;6.20;3.08;;;21.80;69.50;;;;;;5045063;28;20067;-69
2022/07/20 01:28:50;;;;;;;8.63;3.63;;;21.70;70.00;;;;;;5042260;28;20041;-68
2022/07/20 01:31:16;;;;;;;6.57;3.80;;;21.70;70.50;;;;;;5049514;28;20041;-69
2022/07/20 01:33:42;;;;;;;5.55;3.22;;;21.60;69.30;;;;;;5053403;28;20088;-68
2022/07/20 01:36:08;;;;;;;8.02;3.47;;;21.60;68.70;;;;;;5050855;28;20048;-69
2022/07/20 01:38:34;;;;;;;5.47;3.40;;;21.60;69.50;;;;;;5043313;28;20484;-69
2022/07/20 01:40:59;;;;;;;4.75;3.50;;;21.60;68.60;;;;;;5048322;28;20165;-69
2022/07/20 01:43:25;;;;;;;4.65;3.17;;;21.60;68.50;;;;;;5056106;28;20048;-69
2022/07/20 01:45:51;;;;;;;6.07;3.25;;;21.60;68.20;;;;;;5040872;28;20040;-68
2022/07/20 01:48:16;;;;;;;4.53;3.22;;;21.70;67.70;;;;;;5049141;28;20071;-68
2022/07/20 01:50:42;;;;;;;6.97;3.20;;;21.60;69.00;;;;;;5056110;28;20047;-68
2022/07/20 01:53:08;;;;;;;7.65;3.55;;;21.70;68.50;;;;;;5052850;28;20044;-68
2022/07/20 01:55:33;;;;;;;4.95;3.42;;;21.60;68.60;;;;;;5044640;28;20040;-69
2022/07/20 01:57:59;;;;;;;7.95;3.28;;;21.60;69.60;;;;;;5053542;28;20113;-69
2022/07/20 02:00:26;;;;;;;5.53;3.55;;;21.60;69.50;;;;;;5036311;28;20084;-69
2022/07/20 02:02:52;;;;;;;7.65;3.20;;;21.50;68.30;;;;;;5054054;28;20079;-68
2022/07/20 02:05:18;;;;;;;4.80;3.47;;;21.50;69.60;;;;;;5055750;28;20032;-68
2022/07/20 02:07:44;;;;;;;4.43;3.20;;;21.50;69.20;;;;;;5035664;28;20040;-69
2022/07/20 02:10:11;;;;;;;4.40;3.30;;;21.40;69.50;;;;;;5044024;28;20488;-68
2022/07/20 02:12:38;;;;;;;4.88;3.38;;;21.40;67.90;;;;;;5055201;28;20098;-68
2022/07/20 02:15:09;;;;;;;5.85;3.67;;;21.40;67.40;;;;;;5050857;28;20064;-68
2022/07/20 02:17:35;;;;;;;5.53;3.50;;;21.50;68.20;;;;;;5050635;28;20040;-68
2022/07/20 02:20:00;;;;;;;5.05;3.30;;;21.50;67.40;;;;;;5054002;28;20075;-68
2022/07/20 02:22:27;;;;;;;6.20;3.40;;;21.60;67.10;;;;;;5040951;28;20041;-68
2022/07/20 02:24:53;;;;;;;8.98;3.20;;;21.70;67.20;;;;;;5045598;28;20053;-68
2022/07/20 02:27:18;;;;;;;4.00;3.22;;;21.70;67.00;;;;;;5035255;28;20434;-68
2022/07/20 02:29:44;;;;;;;4.95;3.38;;;21.70;66.80;;;;;;5051453;28;20473;-69
2022/07/20 02:32:09;;;;;;;6.72;3.40;;;21.70;67.00;;;;;;5043563;28;20056;-69
2022/07/20 02:34:35;;;;;;;5.00;3.30;;;21.60;66.70;;;;;;5055165;28;20055;-69
2022/07/20 02:37:01;;;;;;;4.13;2.95;;;21.60;68.60;;;;;;5037249;28;20461;-69
2022/07/20 02:39:26;;;;;;;3.80;3.38;;;21.50;68.70;;;;;;5050397;28;20037;-68
2022/07/20 02:41:52;;;;;;;5.82;3.50;;;21.50;67.60;;;;;;5035401;28;20043;-69
2022/07/20 02:44:17;;;;;;;6.05;3.15;;;21.50;68.60;;;;;;5045217;28;20458;-69
2022/07/20 02:46:43;;;;;;;4.07;3.30;;;21.40;69.20;;;;;;5051649;28;20045;-70
2022/07/20 02:49:08;;;;;;;3.50;3.20;;;21.30;69.40;;;;;;5034973;28;20033;-69
2022/07/20 02:51:34;;;;;;;3.95;3.45;;;21.20;69.80;;;;;;5053150;28;20045;-69
2022/07/20 02:53:59;;;;;;;4.88;3.70;;;21.10;70.00;;;;;;5034903;28;20033;-69
2022/07/20 02:56:25;;;;;;;4.03;3.40;;;21.10;70.40;;;;;;5049581;28;20040;-69
2022/07/20 02:58:51;;;;;;;7.43;4.05;;;21.00;70.60;;;;;;5040517;28;20378;-69
2022/07/20 03:01:16;;;;;;;5.68;3.60;;;21.00;69.80;;;;;;5035145;28;20406;-69
2022/07/20 03:03:42;;;;;;;7.72;4.85;;;;;;;;;;5052726;28;20033;-69
2022/07/20 03:06:09;;;;;;;7.53;3.63;;;20.80;69.60;;;;;;5034718;28;20045;-68
2022/07/20 03:08:35;;;;;;;6.55;3.65;;;20.80;69.70;;;;;;5034565;28;20090;-69
2022/07/20 03:11:00;;;;;;;5.50;3.70;;;20.90;70.50;;;;;;5034428;28;20167;-69
2022/07/20 03:13:26;;;;;;;8.95;3.58;;;21.00;70.20;;;;;;5041063;28;20115;-69
2022/07/20 03:15:52;;;;;;;9.23;3.53;;;20.90;70.30;;;;;;5054564;28;20049;-69
2022/07/20 03:18:18;;;;;;;6.55;3.30;;;20.80;69.70;;;;;;5045058;28;20048;-69
2022/07/20 03:20:43;;;;;;;4.38;3.50;;;20.90;70.50;;;;;;5054353;28;20170;-69
2022/07/20 03:23:09;;;;;;;5.20;3.60;;;20.80;71.30;;;;;;5054494;28;20051;-69
2022/07/20 03:25:34;;;;;;;6.55;3.60;;;20.80;71.00;;;;;;5050598;28;20045;-69
2022/07/20 03:28:00;;;;;;;4.95;3.58;;;20.70;71.10;;;;;;5053310;28;20055;-69
2022/07/20 03:30:27;;;;;;;6.30;3.20;;;20.70;71.70;;;;;;5047369;28;20413;-68
2022/07/20 03:32:54;;;;;;;5.57;3.50;;;20.70;71.90;;;;;;5037465;28;20041;-69
2022/07/20 03:35:20;;;;;;;7.10;3.60;;;20.60;71.80;;;;;;5037053;28;20045;-69
2022/07/20 03:37:45;;;;;;;7.85;3.90;;;20.60;72.00;;;;;;5036513;28;20048;-69
2022/07/20 03:40:11;;;;;;;6.60;3.58;;;20.50;72.10;;;;;;5053260;28;20085;-69
2022/07/20 03:42:37;;;;;;;9.35;3.78;;;20.50;72.50;;;;;;5053113;28;20048;-69
2022/07/20 03:45:04;;;;;;;6.57;3.80;;;20.60;72.20;;;;;;5036138;28;20098;-69
2022/07/20 03:47:29;;;;;;;4.97;3.45;;;20.50;73.40;;;;;;5057210;28;20033;-69
2022/07/20 03:49:55;;;;;;;6.63;3.65;;;20.50;73.20;;;;;;5039859;28;20064;-69
2022/07/20 03:52:22;;;;;;;5.43;3.58;;;20.50;73.70;;;;;;5017461;28;20040;-69
2022/07/20 03:54:47;;;;;;;4.95;3.47;;;20.50;72.60;;;;;;5021231;28;20036;-69
2022/07/20 03:57:13;;;;;;;5.32;3.67;;;20.50;72.70;;;;;;5053657;28;20424;-69
2022/07/20 03:59:39;;;;;;;6.95;3.85;;;20.50;73.00;;;;;;5053618;28;20063;-69
2022/07/20 04:02:04;;;;;;;7.00;3.58;;;20.40;73.30;;;;;;5030313;28;20048;-69
2022/07/20 04:04:30;;;;;;;6.32;3.30;;;20.40;73.40;;;;;;5045811;28;20044;-69
2022/07/20 04:06:56;;;;;;;10.10;4.20;;;20.50;74.20;;;;;;5044637;28;20398;-69
2022/07/20 04:12:07;;;;;;;7.65;3.83;;;20.40;74.30;;;;;;5047944;28;20393;-69
2022/07/20 04:14:33;;;;;;;11.77;3.95;;;20.40;73.90;;;;;;5053440;28;20036;-69
2022/07/20 04:16:59;;;;;;;8.65;3.70;;;20.40;73.60;;;;;;5044343;28;20071;-69
2022/07/20 04:19:25;;;;;;;6.10;3.67;;;20.50;74.80;;;;;;5067154;28;20080;-69
2022/07/20 04:21:54;;;;;;;6.00;4.10;;;20.50;75.40;;;;;;5061839;28;20613;-68
2022/07/20 04:24:20;;;;;;;9.52;3.60;;;20.50;74.80;;;;;;5036489;28;20044;-69
2022/07/20 04:26:45;;;;;;;4.22;3.60;;;20.40;75.20;;;;;;5042556;28;20045;-69
2022/07/20 04:29:11;;;;;;;7.68;3.35;;;20.50;75.30;;;;;;5053529;28;20080;-69
2022/07/20 04:31:36;;;;;;;6.85;3.80;;;20.50;75.10;;;;;;5071218;28;20041;-69
2022/07/20 04:34:02;;;;;;;6.18;3.70;;;20.60;75.30;;;;;;5041446;28;20037;-70
2022/07/20 04:36:28;;;;;;;4.95;3.47;;;20.60;75.80;;;;;;5050627;28;20452;-69
2022/07/20 04:38:53;;;;;;;13.25;4.10;;;20.70;76.70;;;;;;5049439;28;20049;-69
2022/07/20 04:41:19;;;;;;;8.02;3.88;;;20.70;75.70;;;;;;5052979;28;20390;-69
2022/07/20 04:43:44;;;;;;;8.60;3.50;;;20.70;75.90;;;;;;5027712;28;20060;-69
2022/07/20 04:46:10;;;;;;;12.60;3.90;;;20.70;77.10;;;;;;5043181;28;20397;-69
2022/07/20 04:48:35;;;;;;;8.05;3.58;;;20.80;77.00;;;;;;5025692;28;20036;-69
2022/07/20 04:51:01;;;;;;;6.30;3.85;;;20.80;76.00;;;;;;5047500;28;20041;-69
2022/07/20 04:53:27;;;;;;;7.00;4.07;;;20.90;76.70;;;;;;5040255;28;20086;-69
2022/07/20 04:55:53;;;;;;;10.32;4.00;;;20.90;77.20;;;;;;5070634;28;20085;-69
2022/07/20 04:58:18;;;;;;;5.00;3.72;;;21.00;77.70;;;;;;5056591;28;20131;-69
2022/07/20 05:00:44;;;;;;;6.00;4.13;;;21.00;77.20;;;;;;5041949;28;20048;-69
2022/07/20 05:03:09;;;;;;;6.10;3.78;;;21.10;76.20;;;;;;5051110;28;20048;-69
2022/07/20 05:05:35;;;;;;;6.63;3.97;;;21.10;77.10;;;;;;5056054;28;20056;-69
2022/07/20 05:08:02;;;;;;;4.78;3.92;;;21.20;76.30;;;;;;5039207;28;20039;-69
2022/07/20 05:10:28;;;;;;;6.68;3.55;;;21.30;76.80;;;;;;5055970;28;20784;-69
2022/07/20 05:12:54;;;;;;;6.55;4.20;;;21.40;76.90;;;;;;5054244;28;20045;-69
2022/07/20 05:15:19;;;;;;;10.05;3.90;;;21.40;76.10;;;;;;5074210;28;20064;-69
2022/07/20 05:17:45;;;;;;;6.07;3.92;;;21.50;76.60;;;;;;5055672;28;20049;-69
2022/07/20 05:20:11;;;;;;;5.93;4.20;;;21.50;76.80;;;;;;5056256;28;20032;-69
2022/07/20 05:22:36;;;;;;;8.90;3.80;;;21.60;77.00;;;;;;5056046;28;20137;-69
2022/07/20 05:25:02;;;;;;;6.07;4.00;;;21.70;77.50;;;;;;5056405;28;20059;-69
2022/07/20 05:27:28;;;;;;;6.40;3.63;;;21.80;76.90;;;;;;5038473;28;20032;-69
2022/07/20 05:29:53;;;;;;;6.35;4.05;;;21.90;76.20;;;;;;5045047;28;20063;-70
2022/07/20 05:32:19;;;;;;;7.75;3.90;;;22.00;76.60;;;;;;5054370;28;20112;-69
2022/07/20 05:34:44;;;;;;;6.53;3.47;;;22.10;76.60;;;;;;5070308;28;20508;-69
2022/07/20 05:37:10;;;;;;;6.40;4.10;;;22.10;77.20;;;;;;5054603;28;20056;-69
2022/07/20 05:39:35;;;;;;;3.78;3.38;;;22.20;76.70;;;;;;5054340;28;20131;-69
2022/07/20 05:42:01;;;;;;;11.23;4.00;;;22.40;75.80;;;;;;5062983;28;20072;-68
2022/07/20 05:44:27;;;;;;;5.70;4.00;;;22.50;75.70;;;;;;5054242;28;20041;-69
2022/07/20 05:46:52;;;;;;;7.43;3.92;;;22.60;75.30;;;;;;5052428;28;20043;-69
2022/07/20 05:49:18;;;;;;;6.45;3.92;;;22.80;74.10;;;;;;5038180;28;20040;-69
2022/07/20 05:51:43;;;;;;;5.85;3.45;;;22.90;75.30;;;;;;5056215;22;20032;-68
2022/07/20 05:54:09;;;;;;;7.65;3.83;;;23.00;75.30;;;;;;5043562;28;20041;-68
2022/07/20 05:56:34;;;;;;;7.13;4.22;;;23.10;75.30;;;;;;5046845;28;20561;-68
2022/07/20 05:59:00;;;;;;;10.57;3.50;;;23.30;75.80;;;;;;5043815;28;20067;-67
2022/07/20 06:01:26;;;;;;;6.10;3.42;;;24.20;75.60;;;;;;5050105;28;20370;-68
2022/07/20 06:03:51;;;;;;;4.88;3.65;;;26.00;73.40;;;;;;5033781;28;20044;-69
2022/07/20 06:06:17;;;;;;;9.73;4.13;;;27.50;70.00;;;;;;5046178;28;20505;-67
2022/07/20 06:08:42;;;;;;;7.63;3.50;;;29.40;63.60;;;;;;5045905;28;20055;-67
2022/07/20 06:11:08;;;;;;;4.90;3.55;;;30.10;62.80;;;;;;5052695;28;20098;-67
2022/07/20 06:13:34;;;;;;;4.82;4.10;;;31.30;62.20;;;;;;5053486;28;20048;-66
2022/07/20 06:16:00;;;;;;;7.28;3.90;;;32.20;59.90;;;;;;5051998;28;20047;-66
2022/07/20 06:18:26;;;;;;;6.60;3.50;;;33.10;59.10;;;;;;5051408;28;20029;-66
2022/07/20 06:20:51;;;;;;;6.50;3.25;;;33.80;57.10;;;;;;5050832;28;20084;-66
2022/07/20 06:23:17;;;;;;;4.68;3.33;;;34.50;56.30;;;;;;5052152;28;20401;-66
2022/07/20 06:25:42;;;;;;;6.93;3.42;;;35.20;56.00;;;;;;5053761;28;20124;-66
2022/07/20 06:28:08;;;;;;;7.38;3.58;;;35.70;54.40;;;;;;5051032;28;20048;-67
2022/07/20 06:30:34;;;;;;;5.13;3.20;;;36.00;53.80;;;;;;5050810;28;20049;-66
2022/07/20 06:32:59;;;;;;;5.75;3.50;;;36.40;53.20;;;;;;5050332;28;20044;-66
2022/07/20 06:35:25;;;;;;;7.65;3.17;;;36.80;52.50;;;;;;5046982;28;20163;-66
2022/07/20 06:37:51;;;;;;;34.03;4.88;;;37.30;52.60;;;;;;5031119;28;20044;-66
2022/07/20 06:40:16;;;;;;;8.45;3.75;;;37.30;52.10;;;;;;5032303;28;20045;-66
2022/07/20 06:42:42;;;;;;;7.15;3.17;;;37.70;51.30;;;;;;5049147;28;20044;-66
2022/07/20 06:45:08;;;;;;;7.00;3.70;;;38.10;51.00;;;;;;5052098;28;20033;-66
2022/07/20 06:47:34;;;;;;;7.90;3.50;;;38.50;50.70;;;;;;5051613;28;20033;-66
2022/07/20 06:49:59;;;;;;;5.28;3.75;;;38.70;48.20;;;;;;5049041;28;20120;-66
2022/07/20 06:52:25;;;;;;;8.98;3.45;;;38.40;48.50;;;;;;5043177;28;20061;-66
2022/07/20 06:54:50;;;;;;;10.43;3.58;;;38.50;48.80;;;;;;5032657;28;20099;-66
2022/07/20 06:57:16;;;;;;;4.75;3.17;;;38.50;47.80;;;;;;5037899;28;20048;-66
2022/07/20 06:59:42;;;;;;;13.98;3.80;;;38.70;47.30;;;;;;5051443;28;20508;-66
2022/07/20 07:02:09;;;;;;;6.05;3.20;;;39.10;47.30;;;;;;5047761;28;20048;-66
2022/07/20 07:04:34;;;;;;;7.15;3.20;;;39.50;47.90;;;;;;5029014;28;20043;-66
2022/07/20 07:07:02;;;;;;;5.88;3.80;;;39.50;46.50;;;;;;5046065;28;20390;-66
2022/07/20 07:09:28;;;;;;;5.28;3.35;;;39.60;47.50;;;;;;5050197;28;20037;-66
2022/07/20 07:11:53;;;;;;;4.38;3.60;;;39.80;47.00;;;;;;5048658;28;20037;-66
2022/07/20 07:14:19;;;;;;;4.65;3.60;;;39.70;45.90;;;;;;5051336;28;20037;-66
2022/07/20 07:16:44;;;;;;;3.92;3.53;;;39.20;43.90;;;;;;5047930;28;20472;-66
2022/07/20 07:19:10;;;;;;;6.72;3.85;;;39.40;45.80;;;;;;5047662;28;20044;-66
2022/07/20 07:21:35;;;;;;;6.28;3.80;;;39.50;45.30;;;;;;5049190;28;20072;-66
2022/07/20 07:24:01;;;;;;;5.93;3.85;;;39.50;45.30;;;;;;5051502;28;20756;-66
2022/07/20 07:26:27;;;;;;;7.03;4.10;;;39.60;45.80;;;;;;5052118;28;20067;-66
2022/07/20 07:28:52;;;;;;;5.50;3.53;;;39.50;45.30;;;;;;5050683;28;20375;-66
2022/07/20 07:31:18;;;;;;;8.88;4.13;;;39.70;45.60;;;;;;5051140;28;20083;-66
2022/07/20 07:33:45;;;;;;;4.88;4.18;;;39.80;46.20;;;;;;5049541;28;20037;-67
2022/07/20 07:36:11;;;;;;;16.95;5.10;;;39.70;45.70;;;;;;5032756;28;20056;-67
2022/07/20 07:38:36;;;;;;;5.72;4.63;;;39.00;44.10;;;;;;5030726;28;20034;-66
2022/07/20 07:41:02;;;;;;;5.82;4.38;;;39.50;45.80;;;;;;5035378;28;20033;-66
2022/07/20 07:43:27;;;;;;;7.20;4.82;;;39.40;45.50;;;;;;5048902;28;20071;-66
2022/07/20 07:45:53;;;;;;;7.50;4.70;;;39.40;45.20;;;;;;5051877;28;20124;-66
2022/07/20 07:48:19;;;;;;;5.82;4.68;;;39.10;45.60;;;;;;5044537;28;20049;-66
2022/07/20 07:50:45;;;;;;;7.72;4.20;;;39.30;46.40;;;;;;5042636;28;20045;-66
2022/07/20 07:53:12;;;;;;;6.53;5.03;;;39.50;46.70;;;;;;5049562;28;20069;-66
2022/07/20 07:55:39;;;;;;;8.48;5.32;;;39.50;46.70;;;;;;5051732;28;20494;-66
2022/07/20 07:58:07;;;;;;;12.63;5.30;;;39.10;46.20;;;;;;5048183;28;20566;-66
2022/07/20 08:00:35;;;;;;;7.65;4.82;;;38.90;46.40;;;;;;5041826;28;20408;-66
2022/07/20 08:03:02;;;;;;;9.82;5.45;;;38.60;45.90;;;;;;5051592;28;20564;-66
2022/07/20 08:05:27;;;;;;;7.68;5.22;;;38.80;47.30;;;;;;5047918;28;20118;-66
2022/07/20 08:07:53;;;;;;;8.73;5.40;;;38.80;47.50;;;;;;5047271;28;20471;-66
2022/07/20 08:10:19;;;;;;;8.52;5.93;;;38.70;47.60;;;;;;5050864;28;20032;-66
2022/07/20 08:12:44;;;;;;;9.65;6.35;;;38.30;47.90;;;;;;5049925;28;20120;-66
2022/07/20 08:15:11;;;;;;;8.00;6.68;;;37.60;48.80;;;;;;5049919;28;20041;-66
2022/07/20 08:17:36;;;;;;;11.20;7.20;;;36.80;49.50;;;;;;5049020;28;20115;-66
2022/07/20 08:20:06;;;;;;;8.00;6.68;;;36.10;50.60;;;;;;5047681;28;20516;-66
2022/07/20 08:22:32;;;;;;;9.07;7.82;;;35.40;51.60;;;;;;5045170;28;20616;-67
2022/07/20 08:24:58;;;;;;;11.25;8.02;;;34.60;52.20;;;;;;5047301;28;20179;-67
2022/07/20 08:27:24;;;;;;;12.15;8.57;;;33.90;53.60;;;;;;5035794;28;20037;-66
2022/07/20 08:29:49;;;;;;;11.88;8.98;;;33.50;54.30;;;;;;5037245;28;20037;-67
2022/07/20 08:32:15;;;;;;;10.75;9.10;;;33.20;55.40;;;;;;5049845;28;20052;-67
2022/07/20 08:34:40;;;;;;;12.88;9.85;;;33.00;55.70;;;;;;5049635;28;20044;-66
2022/07/20 08:37:06;;;;;;;13.25;9.35;;;32.60;56.50;;;;;;5049927;28;20040;-67
2022/07/20 08:39:32;;;;;;;14.63;11.60;;;32.30;57.90;;;;;;5050511;28;20048;-67
2022/07/20 08:41:57;;;;;;;13.63;12.13;;;32.20;58.10;;;;;;5041717;28;20502;-66
2022/07/20 08:44:23;;;;;;;16.23;13.55;;;32.00;59.20;;;;;;5039749;28;20116;-66
2022/07/20 08:46:50;;;;;;;20.27;14.70;;;32.00;59.20;;;;;;5049739;28;20053;-66
2022/07/20 08:49:15;;;;;;;19.20;14.95;;;31.80;60.60;;;;;;5049423;28;20495;-66
2022/07/20 08:51:42;;;;;;;20.52;15.88;;;31.70;60.70;;;;;;5044551;28;20079;-67
2022/07/20 08:54:08;;;;;;;18.08;14.90;;;31.50;61.80;;;;;;5044915;28;20604;-66
2022/07/20 08:56:34;;;;;;;17.95;15.68;;;31.40;61.40;;;;;;5042992;28;20044;-66
2022/07/20 08:59:00;;;;;;;19.42;17.33;;;31.40;61.80;;;;;;5048953;28;20044;-64
2022/07/20 09:01:25;;;;;;;21.08;17.75;;;31.30;62.20;;;;;;5045464;28;20082;-64
2022/07/20 09:04:11;;;;;;;18.85;16.50;;;31.10;62.00;;;;;;5046007;28;20700;-66
2022/07/20 09:06:47;;;;;;;22.35;18.55;;;31.10;62.90;;;;;;5038620;28;20131;-66
2022/07/20 09:09:13;;;;;;;20.20;16.60;;;31.00;63.60;;;;;;5049194;28;20072;-64
2022/07/20 09:11:40;;;;;;;23.00;16.25;;;31.10;62.50;;;;;;5048746;28;20414;-64
2022/07/20 09:14:05;;;;;;;20.63;18.50;;;31.10;62.80;;;;;;5050283;28;20175;-66
2022/07/20 09:16:40;;;;;;;21.38;18.08;;;31.20;63.30;;;;;;5043885;28;20116;-66
2022/07/20 09:19:06;;;;;;;24.38;18.73;;;30.90;65.00;;;;;;5049309;28;20049;-66
2022/07/20 09:21:33;;;;;;;20.65;18.48;;;30.80;65.50;;;;;;5061326;28;20061;-66
2022/07/20 09:24:07;;;;;;;21.25;17.88;;;30.70;65.60;;;;;;5045334;28;20483;-66
2022/07/20 09:26:34;;;;;;;21.77;18.92;;;30.80;64.20;;;;;;5045792;28;20493;-67
2022/07/20 09:29:03;;;;;;;21.20;19.00;;;30.90;65.00;;;;;;5052392;28;20477;-66
2022/07/20 09:31:38;;;;;;;22.52;19.17;;;30.80;65.60;;;;;;5054291;28;20047;-66
2022/07/20 09:34:06;;;;;;;21.08;17.85;;;30.70;65.50;;;;;;5042269;28;20431;-66
2022/07/20 09:36:35;;;;;;;24.13;18.60;;;30.70;64.40;;;;;;5034163;28;20834;-66
2022/07/20 09:39:15;;;;;;;22.90;18.00;;;30.80;64.70;;;;;;5054246;28;20047;-66
2022/07/20 09:41:52;;;;;;;19.55;17.25;;;30.70;65.90;;;;;;5052810;28;20045;-67
2022/07/20 09:44:23;;;;;;;22.25;19.45;;;30.70;64.20;;;;;;5048354;28;20134;-66
2022/07/20 09:46:49;;;;;;;21.08;18.80;;;30.70;64.20;;;;;;5051620;28;20101;-67
2022/07/20 09:49:15;;;;;;;21.48;19.13;;;30.70;65.10;;;;;;5051057;28;20530;-66
2022/07/20 09:51:46;;;;;;;23.02;19.17;;;30.70;65.00;;;;;;5035355;28;20128;-67
2022/07/20 09:54:19;;;;;;;23.63;19.60;;;30.70;64.80;;;;;;5032639;28;20049;-66
2022/07/20 09:56:47;;;;;;;26.08;19.27;;;30.70;63.90;;;;;;5033933;28;20771;-66
2022/07/20 09:59:14;;;;;;;23.98;20.73;;;30.60;64.40;;;;;;5042927;28;20041;-66
2022/07/20 10:01:45;;;;;;;22.02;19.20;;;30.50;64.90;;;;;;5060553;28;20060;-66
2022/07/20 10:04:12;;;;;;;23.13;20.77;;;30.60;64.40;;;;;;5052788;28;20036;-66
2022/07/20 10:06:40;;;;;;;23.63;19.77;;;30.50;64.70;;;;;;5049568;28;20115;-66
2022/07/20 10:09:07;;;;;;;22.63;18.98;;;30.60;64.10;;;;;;5049694;28;20045;-66
2022/07/20 10:11:33;;;;;;;22.15;19.63;;;30.60;64.30;;;;;;5050024;28;20044;-66
2022/07/20 10:14:04;;;;;;;23.77;19.30;;;30.70;64.00;;;;;;5052247;28;20033;-66
2022/07/20 10:16:37;;;;;;;22.67;18.90;;;30.60;64.00;;;;;;5052632;28;20572;-66
2022/07/20 10:19:07;;;;;;;21.55;18.25;;;30.70;64.50;;;;;;5049371;28;20056;-66
2022/07/20 10:21:41;;;;;;;20.92;18.83;;;30.70;64.30;;;;;;5049787;28;20036;-66
2022/07/20 10:24:16;;;;;;;21.05;17.83;;;30.80;63.90;;;;;;5047958;28;20129;-66
2022/07/20 10:26:42;;;;;;;21.98;18.02;;;30.70;64.30;;;;;;5047245;28;20452;-66
2022/07/20 10:29:09;;;;;;;20.15;18.00;;;31.00;63.70;;;;;;5048591;28;20041;-66
2022/07/20 10:31:52;;;;;;;20.67;17.73;;;30.80;63.80;;;;;;5053097;28;20509;-66
2022/07/20 10:34:34;;;;;;;20.50;16.65;;;30.80;64.00;;;;;;5050309;28;20128;-66
2022/07/20 10:37:36;;;;;;;20.92;16.58;;;30.80;63.70;;;;;;5050353;28;20028;-67
2022/07/20 10:40:09;;;;;;;17.67;15.90;;;30.90;63.30;;;;;;5050698;28;20072;-66
2022/07/20 10:42:43;;;;;;;18.55;15.93;;;31.00;63.20;;;;;;5049932;28;20047;-66
2022/07/20 10:45:25;;;;;;;19.35;16.65;;;31.00;62.60;;;;;;5050614;28;20044;-66
2022/07/20 10:47:55;;;;;;;17.40;15.70;;;30.80;63.20;;;;;;5051830;28;20466;-66
2022/07/20 10:50:37;;;;;;;20.15;15.82;;;30.90;62.90;;;;;;5052925;28;20094;-66
2022/07/20 10:53:12;;;;;;;18.48;16.15;;;30.90;63.10;;;;;;5050809;28;20502;-66
2022/07/20 10:55:37;;;;;;;15.75;14.15;;;30.90;63.30;;;;;;5050091;28;20118;-66
2022/07/20 10:58:06;;;;;;;15.85;14.15;;;30.90;62.70;;;;;;5047857;28;20491;-66
2022/07/20 11:00:39;;;;;;;15.07;13.68;;;31.00;62.60;;;;;;5040270;28;20048;-66
2022/07/20 11:03:17;;;;;;;17.45;14.50;;;31.00;62.40;;;;;;5039734;28;20056;-66
2022/07/20 11:05:44;;;;;;;16.08;13.50;;;31.00;62.60;;;;;;5050026;28;20049;-66
2022/07/20 11:08:11;;;;;;;16.73;12.68;;;31.10;62.40;;;;;;5045908;28;20383;-66
2022/07/20 11:10:38;;;;;;;16.48;13.05;;;31.10;62.80;;;;;;5050664;28;20068;-65
2022/07/20 11:13:10;;;;;;;19.45;12.45;;;31.10;63.00;;;;;;5051090;28;20478;-65
2022/07/20 11:15:40;;;;;;;16.33;12.27;;;31.10;62.00;;;;;;5043502;28;20057;-66
2022/07/20 11:18:07;;;;;;;14.13;11.25;;;31.10;62.40;;;;;;5039413;28;20045;-66
2022/07/20 11:20:32;;;;;;;13.10;10.63;;;31.20;62.10;;;;;;5043710;28;20079;-66
2022/07/20 11:23:00;;;;;;;13.23;10.43;;;31.30;61.10;;;;;;5051265;28;20090;-66
2022/07/20 11:25:28;;;;;;;12.00;10.32;;;31.20;61.50;;;;;;5051887;28;20044;-66
2022/07/20 11:28:01;;;;;;;10.68;9.55;;;31.20;60.90;;;;;;5033146;28;20075;-66
2022/07/20 11:30:36;;;;;;;12.27;10.60;;;31.20;61.80;;;;;;5041221;28;20037;-66
2022/07/20 11:33:02;;;;;;;13.52;10.13;;;31.30;61.80;;;;;;5033206;28;20494;-66
2022/07/20 11:35:28;;;;;;;12.40;9.70;;;31.40;61.90;;;;;;5043920;28;20098;-66
2022/07/20 11:37:54;;;;;;;13.23;10.45;;;31.40;61.80;;;;;;5051368;28;20041;-66
2022/07/20 11:40:21;;;;;;;11.20;10.05;;;31.40;61.00;;;;;;5050205;28;20080;-66
2022/07/20 11:43:06;;;;;;;10.48;9.43;;;31.40;61.60;;;;;;5051035;28;20514;-66
2022/07/20 11:45:32;;;;;;;11.38;10.20;;;31.50;62.30;;;;;;5049037;28;20045;-66
2022/07/20 11:47:57;;;;;;;11.07;9.25;;;31.50;61.90;;;;;;5047440;28;20041;-66
2022/07/20 11:50:32;;;;;;;15.20;10.75;;;31.50;62.10;;;;;;5036593;28;20083;-66
2022/07/20 11:52:57;;;;;;;12.27;9.48;;;31.40;62.30;;;;;;5048236;22;20060;-71
2022/07/20 11:55:36;;;;;;;10.85;9.73;;;31.40;62.90;;;;;;5043526;28;20041;-71
2022/07/20 11:58:02;;;;;;;12.52;9.93;;;31.50;62.40;;;;;;5029992;28;20048;-71
2022/07/20 12:00:29;;;;;;;11.27;9.75;;;31.50;62.20;;;;;;5032231;28;20102;-73
2022/07/20 12:02:56;;;;;;;12.15;10.88;;;31.50;62.60;;;;;;5014254;28;20061;-72
2022/07/20 12:05:22;;;;;;;13.57;10.20;;;31.60;62.70;;;;;;5012513;28;20037;-72
2022/07/20 12:10:34;;;;;;;12.43;10.52;;;31.70;62.00;;;;;;5014055;28;20390;-71
2022/07/20 12:13:09;;;;;;;11.27;9.95;;;31.60;61.70;;;;;;5034310;28;20124;-71
2022/07/20 12:15:36;;;;;;;13.60;9.68;;;31.60;62.00;;;;;;5003832;28;20172;-71
2022/07/20 12:18:02;;;;;;;11.07;9.00;;;31.70;62.00;;;;;;5026918;28;20057;-71
2022/07/20 12:20:28;;;;;;;11.57;9.95;;;31.60;61.50;;;;;;5027002;28;20116;-71
2022/07/20 12:22:56;;;;;;;13.93;9.60;;;31.60;61.40;;;;;;5028637;28;20030;-71
2022/07/20 12:25:33;;;;;;;10.90;8.80;;;31.60;62.50;;;;;;5012631;28;20057;-71
2022/07/20 12:27:59;;;;;;;12.35;9.57;;;31.60;61.90;;;;;;5033536;28;20045;-70
2022/07/20 12:30:31;;;;;;;12.43;8.93;;;31.50;62.20;;;;;;5011392;28;20042;-72
2022/07/20 12:33:06;;;;;;;11.25;8.18;;;31.50;61.20;;;;;;5026485;28;20033;-71
2022/07/20 12:35:32;;;;;;;12.88;8.27;;;31.50;60.40;;;;;;5013286;28;20045;-71
2022/07/20 12:37:57;;;;;;;8.27;7.40;;;31.60;61.80;;;;;;5028231;28;20464;-71
2022/07/20 12:40:37;;;;;;;9.68;7.68;;;31.60;61.40;;;;;;5029772;28;20127;-72
2022/07/20 12:43:05;;;;;;;10.68;7.90;;;31.60;60.20;;;;;;5030303;28;20093;-72
2022/07/20 12:45:31;;;;;;;9.95;7.82;;;31.50;60.00;;;;;;5013330;28;20041;-71
2022/07/20 12:47:57;;;;;;;8.50;7.68;;;31.60;61.00;;;;;;5012196;28;20057;-71